X  Fermer Données météorologiques d'aviation de Metar     KBNA Nashville International Airport
Température
63°F Température
32°F Point de rosée
32% Humidité



Vitesse
3 MPH
5 KM/H
1 M/S
3 KTS



200°
SSO
Conditions actuelles

Claire Claire
Pression 1013.55 (hPa) - 29.93 (inHg)
Visibilité 10 (mile) - 16.1 (km)
Aéroport
Code de l'aéroport KBNA

Emplacement: Nashville International Airport
Distance: 28 (mi)

Metar:
KBNA 260053Z 20003KT 10SM CLR 17/00 A2993 RMK AO2 SLP137 T01670000 $

Temps: 02-26-2024 12:53 am CST